sensor_id;sensor_type;location;lat;lon;timestamp;temperature;humidity
53254;DHT22;39148;53.332;6.922;2022-08-18T00:01:38;23.20;78.60
53254;DHT22;39148;53.332;6.922;2022-08-18T00:04:06;23.20;78.60
53254;DHT22;39148;53.332;6.922;2022-08-18T00:06:32;23.30;78.70
53254;DHT22;39148;53.332;6.922;2022-08-18T00:09:00;23.10;78.40
53254;DHT22;39148;53.332;6.922;2022-08-18T00:11:27;23.20;78.60
53254;DHT22;39148;53.332;6.922;2022-08-18T00:13:54;23.10;78.60
53254;DHT22;39148;53.332;6.922;2022-08-18T00:16:20;23.20;78.60
53254;DHT22;39148;53.332;6.922;2022-08-18T00:18:46;23.10;78.50
53254;DHT22;39148;53.332;6.922;2022-08-18T00:21:12;23.20;78.60
53254;DHT22;39148;53.332;6.922;2022-08-18T00:23:37;23.20;78.70
53254;DHT22;39148;53.332;6.922;2022-08-18T00:26:03;23.10;78.60
53254;DHT22;39148;53.332;6.922;2022-08-18T00:28:29;23.20;78.60
53254;DHT22;39148;53.332;6.922;2022-08-18T00:30:55;23.10;78.70
53254;DHT22;39148;53.332;6.922;2022-08-18T00:33:21;23.10;78.70
53254;DHT22;39148;53.332;6.922;2022-08-18T00:35:47;23.10;78.70
53254;DHT22;39148;53.332;6.922;2022-08-18T00:38:13;23.10;78.80
53254;DHT22;39148;53.332;6.922;2022-08-18T00:40:43;23.10;78.80
53254;DHT22;39148;53.332;6.922;2022-08-18T00:43:36;23.00;77.60
53254;DHT22;39148;53.332;6.922;2022-08-18T00:46:00;23.10;79.10
53254;DHT22;39148;53.332;6.922;2022-08-18T00:48:26;23.00;78.80
53254;DHT22;39148;53.332;6.922;2022-08-18T00:51:01;23.10;78.80
53254;DHT22;39148;53.332;6.922;2022-08-18T00:55:58;23.10;79.00
53254;DHT22;39148;53.332;6.922;2022-08-18T00:58:38;23.00;79.00
53254;DHT22;39148;53.332;6.922;2022-08-18T01:01:07;23.00;79.10
53254;DHT22;39148;53.332;6.922;2022-08-18T01:03:35;23.00;79.00
53254;DHT22;39148;53.332;6.922;2022-08-18T01:06:26;23.00;79.00
53254;DHT22;39148;53.332;6.922;2022-08-18T01:08:53;23.00;78.00
53254;DHT22;39148;53.332;6.922;2022-08-18T01:11:19;22.90;79.00
53254;DHT22;39148;53.332;6.922;2022-08-18T01:13:45;22.90;78.80
53254;DHT22;39148;53.332;6.922;2022-08-18T01:16:11;23.20;79.00
53254;DHT22;39148;53.332;6.922;2022-08-18T01:18:55;22.90;78.10
53254;DHT22;39148;53.332;6.922;2022-08-18T01:21:43;22.90;78.00
53254;DHT22;39148;53.332;6.922;2022-08-18T01:24:25;22.90;79.00
53254;DHT22;39148;53.332;6.922;2022-08-18T01:27:13;23.00;79.10
53254;DHT22;39148;53.332;6.922;2022-08-18T01:29:46;23.00;79.00
53254;DHT22;39148;53.332;6.922;2022-08-18T01:32:19;22.80;78.00
53254;DHT22;39148;53.332;6.922;2022-08-18T01:34:47;22.80;78.90
53254;DHT22;39148;53.332;6.922;2022-08-18T01:37:16;23.00;79.00
53254;DHT22;39148;53.332;6.922;2022-08-18T01:39:43;22.80;78.90
53254;DHT22;39148;53.332;6.922;2022-08-18T01:42:10;22.90;79.00
53254;DHT22;39148;53.332;6.922;2022-08-18T01:44:36;22.90;79.00
53254;DHT22;39148;53.332;6.922;2022-08-18T01:47:04;22.90;79.00
53254;DHT22;39148;53.332;6.922;2022-08-18T01:49:30;22.80;78.80
53254;DHT22;39148;53.332;6.922;2022-08-18T01:51:56;22.90;78.90
53254;DHT22;39148;53.332;6.922;2022-08-18T01:54:22;22.80;78.80
53254;DHT22;39148;53.332;6.922;2022-08-18T01:56:47;22.80;78.80
53254;DHT22;39148;53.332;6.922;2022-08-18T01:59:14;22.90;79.00
53254;DHT22;39148;53.332;6.922;2022-08-18T02:01:45;22.90;78.90
53254;DHT22;39148;53.332;6.922;2022-08-18T02:04:14;22.70;79.10
53254;DHT22;39148;53.332;6.922;2022-08-18T02:06:40;22.70;79.00
53254;DHT22;39148;53.332;6.922;2022-08-18T02:09:06;22.80;78.90
53254;DHT22;39148;53.332;6.922;2022-08-18T02:11:32;22.80;78.90
53254;DHT22;39148;53.332;6.922;2022-08-18T02:13:58;22.70;78.90
53254;DHT22;39148;53.332;6.922;2022-08-18T02:16:23;23.00;78.90
53254;DHT22;39148;53.332;6.922;2022-08-18T02:18:49;22.80;78.80
53254;DHT22;39148;53.332;6.922;2022-08-18T02:21:18;22.70;78.80
53254;DHT22;39148;53.332;6.922;2022-08-18T02:23:45;22.70;79.00
53254;DHT22;39148;53.332;6.922;2022-08-18T02:26:13;22.70;78.90
53254;DHT22;39148;53.332;6.922;2022-08-18T02:28:40;22.80;79.00
53254;DHT22;39148;53.332;6.922;2022-08-18T02:31:09;22.70;78.70
53254;DHT22;39148;53.332;6.922;2022-08-18T02:33:35;22.80;78.90
53254;DHT22;39148;53.332;6.922;2022-08-18T02:36:01;22.70;78.80
53254;DHT22;39148;53.332;6.922;2022-08-18T02:38:28;22.70;78.70
53254;DHT22;39148;53.332;6.922;2022-08-18T02:40:58;22.60;78.80
53254;DHT22;39148;53.332;6.922;2022-08-18T02:43:25;22.70;79.10
53254;DHT22;39148;53.332;6.922;2022-08-18T02:45:51;22.70;78.90
53254;DHT22;39148;53.332;6.922;2022-08-18T02:48:17;22.60;78.80
53254;DHT22;39148;53.332;6.922;2022-08-18T02:51:17;22.60;78.40
53254;DHT22;39148;53.332;6.922;2022-08-18T02:53:45;22.70;78.10
53254;DHT22;39148;53.332;6.922;2022-08-18T02:56:20;22.60;78.90
53254;DHT22;39148;53.332;6.922;2022-08-18T02:58:55;22.80;79.30
53254;DHT22;39148;53.332;6.922;2022-08-18T03:01:28;22.70;79.10
53254;DHT22;39148;53.332;6.922;2022-08-18T03:03:55;22.60;79.00
53254;DHT22;39148;53.332;6.922;2022-08-18T03:06:22;22.60;79.40
53254;DHT22;39148;53.332;6.922;2022-08-18T03:08:48;22.50;78.90
53254;DHT22;39148;53.332;6.922;2022-08-18T03:11:19;22.60;79.00
53254;DHT22;39148;53.332;6.922;2022-08-18T03:13:45;22.70;79.10
53254;DHT22;39148;53.332;6.922;2022-08-18T03:16:12;22.60;78.80
53254;DHT22;39148;53.332;6.922;2022-08-18T03:18:38;22.50;78.90
53254;DHT22;39148;53.332;6.922;2022-08-18T03:21:11;22.60;78.90
53254;DHT22;39148;53.332;6.922;2022-08-18T03:23:37;22.60;79.10
53254;DHT22;39148;53.332;6.922;2022-08-18T03:26:08;22.50;78.90
53254;DHT22;39148;53.332;6.922;2022-08-18T03:28:37;22.60;79.10
53254;DHT22;39148;53.332;6.922;2022-08-18T03:31:04;22.60;79.10
53254;DHT22;39148;53.332;6.922;2022-08-18T03:33:29;22.50;78.70
53254;DHT22;39148;53.332;6.922;2022-08-18T03:35:55;22.60;78.80
53254;DHT22;39148;53.332;6.922;2022-08-18T03:38:21;22.50;78.90
53254;DHT22;39148;53.332;6.922;2022-08-18T03:40:51;22.50;78.90
53254;DHT22;39148;53.332;6.922;2022-08-18T03:43:17;22.60;79.70
53254;DHT22;39148;53.332;6.922;2022-08-18T03:45:42;22.50;78.90
53254;DHT22;39148;53.332;6.922;2022-08-18T03:48:08;22.50;78.90
53254;DHT22;39148;53.332;6.922;2022-08-18T03:50:35;22.40;79.00
53254;DHT22;39148;53.332;6.922;2022-08-18T03:53:02;22.50;78.90
53254;DHT22;39148;53.332;6.922;2022-08-18T03:55:30;22.50;79.00
53254;DHT22;39148;53.332;6.922;2022-08-18T03:57:59;22.50;79.00
53254;DHT22;39148;53.332;6.922;2022-08-18T04:00:29;22.40;79.20
53254;DHT22;39148;53.332;6.922;2022-08-18T04:02:56;22.40;79.10
53254;DHT22;39148;53.332;6.922;2022-08-18T04:05:22;22.50;79.00
53254;DHT22;39148;53.332;6.922;2022-08-18T04:07:47;22.40;78.90
53254;DHT22;39148;53.332;6.922;2022-08-18T04:10:13;22.40;78.80
53254;DHT22;39148;53.332;6.922;2022-08-18T04:12:40;22.50;78.80
53254;DHT22;39148;53.332;6.922;2022-08-18T04:15:07;22.40;78.90
53254;DHT22;39148;53.332;6.922;2022-08-18T04:17:34;22.40;78.60
53254;DHT22;39148;53.332;6.922;2022-08-18T04:20:00;22.40;78.80
53254;DHT22;39148;53.332;6.922;2022-08-18T04:22:26;22.30;78.80
53254;DHT22;39148;53.332;6.922;2022-08-18T04:24:52;22.40;78.90
53254;DHT22;39148;53.332;6.922;2022-08-18T04:27:19;22.40;78.90
53254;DHT22;39148;53.332;6.922;2022-08-18T04:29:46;22.40;79.10
53254;DHT22;39148;53.332;6.922;2022-08-18T04:32:12;22.50;79.10
53254;DHT22;39148;53.332;6.922;2022-08-18T04:34:38;22.60;79.00
53254;DHT22;39148;53.332;6.922;2022-08-18T04:37:03;22.30;78.90
53254;DHT22;39148;53.332;6.922;2022-08-18T04:39:30;22.30;78.90
53254;DHT22;39148;53.332;6.922;2022-08-18T04:41:56;22.50;79.10
53254;DHT22;39148;53.332;6.922;2022-08-18T04:44:23;22.40;79.20
53254;DHT22;39148;53.332;6.922;2022-08-18T04:46:52;22.40;79.00
53254;DHT22;39148;53.332;6.922;2022-08-18T04:49:20;22.40;79.20
53254;DHT22;39148;53.332;6.922;2022-08-18T04:51:48;22.30;79.20
53254;DHT22;39148;53.332;6.922;2022-08-18T04:54:34;22.40;79.30
53254;DHT22;39148;53.332;6.922;2022-08-18T04:57:15;22.30;79.20
53254;DHT22;39148;53.332;6.922;2022-08-18T04:59:46;22.30;79.50
53254;DHT22;39148;53.332;6.922;2022-08-18T05:02:14;22.30;79.40
53254;DHT22;39148;53.332;6.922;2022-08-18T05:04:41;22.30;79.30
53254;DHT22;39148;53.332;6.922;2022-08-18T05:07:09;22.30;79.30
53254;DHT22;39148;53.332;6.922;2022-08-18T05:09:37;22.30;79.30
53254;DHT22;39148;53.332;6.922;2022-08-18T05:12:04;22.30;79.30
53254;DHT22;39148;53.332;6.922;2022-08-18T05:14:30;22.40;79.20
53254;DHT22;39148;53.332;6.922;2022-08-18T05:17:00;22.30;79.10
53254;DHT22;39148;53.332;6.922;2022-08-18T05:19:27;22.30;79.40
53254;DHT22;39148;53.332;6.922;2022-08-18T05:21:54;22.30;79.10
53254;DHT22;39148;53.332;6.922;2022-08-18T05:24:20;22.30;79.30
53254;DHT22;39148;53.332;6.922;2022-08-18T05:26:47;22.30;79.30
53254;DHT22;39148;53.332;6.922;2022-08-18T05:29:14;22.30;79.20
53254;DHT22;39148;53.332;6.922;2022-08-18T05:31:40;22.30;79.20
53254;DHT22;39148;53.332;6.922;2022-08-18T05:34:06;22.30;79.20
53254;DHT22;39148;53.332;6.922;2022-08-18T05:39:20;22.30;78.10
53254;DHT22;39148;53.332;6.922;2022-08-18T05:41:54;22.30;79.50
53254;DHT22;39148;53.332;6.922;2022-08-18T05:44:29;22.20;78.50
53254;DHT22;39148;53.332;6.922;2022-08-18T05:46:59;22.20;79.40
53254;DHT22;39148;53.332;6.922;2022-08-18T05:49:26;22.30;79.50
53254;DHT22;39148;53.332;6.922;2022-08-18T05:52:38;22.30;79.40
53254;DHT22;39148;53.332;6.922;2022-08-18T05:55:00;22.20;78.20
53254;DHT22;39148;53.332;6.922;2022-08-18T05:57:55;22.30;79.60
53254;DHT22;39148;53.332;6.922;2022-08-18T06:00:22;22.20;79.60
53254;DHT22;39148;53.332;6.922;2022-08-18T06:03:11;22.30;79.30
53254;DHT22;39148;53.332;6.922;2022-08-18T06:05:51;22.30;78.20
53254;DHT22;39148;53.332;6.922;2022-08-18T06:08:19;22.50;78.30
53254;DHT22;39148;53.332;6.922;2022-08-18T06:10:49;22.30;79.40
53254;DHT22;39148;53.332;6.922;2022-08-18T06:13:16;22.20;79.30
53254;DHT22;39148;53.332;6.922;2022-08-18T06:19:07;22.20;78.50
53254;DHT22;39148;53.332;6.922;2022-08-18T06:25:01;22.20;78.50
53254;DHT22;39148;53.332;6.922;2022-08-18T06:30:19;22.20;78.40
53254;DHT22;39148;53.332;6.922;2022-08-18T06:35:54;22.20;78.60
53254;DHT22;39148;53.332;6.922;2022-08-18T06:38:37;22.10;79.50
53254;DHT22;39148;53.332;6.922;2022-08-18T06:41:20;22.20;78.30
53254;DHT22;39148;53.332;6.922;2022-08-18T06:43:59;22.10;79.70
53254;DHT22;39148;53.332;6.922;2022-08-18T06:46:36;22.20;78.40
53254;DHT22;39148;53.332;6.922;2022-08-18T06:49:13;22.10;79.50
53254;DHT22;39148;53.332;6.922;2022-08-18T06:51:41;22.20;78.30
53254;DHT22;39148;53.332;6.922;2022-08-18T06:54:25;22.10;79.30
53254;DHT22;39148;53.332;6.922;2022-08-18T06:56:53;22.30;79.80
53254;DHT22;39148;53.332;6.922;2022-08-18T06:59:32;22.20;79.60
53254;DHT22;39148;53.332;6.922;2022-08-18T07:02:19;22.10;79.70
53254;DHT22;39148;53.332;6.922;2022-08-18T07:05:14;22.20;79.80
53254;DHT22;39148;53.332;6.922;2022-08-18T07:07:43;22.10;78.60
53254;DHT22;39148;53.332;6.922;2022-08-18T07:12:41;22.20;79.70
53254;DHT22;39148;53.332;6.922;2022-08-18T07:15:11;22.10;79.40
53254;DHT22;39148;53.332;6.922;2022-08-18T07:17:37;22.10;79.60
53254;DHT22;39148;53.332;6.922;2022-08-18T07:20:21;22.10;79.50
53254;DHT22;39148;53.332;6.922;2022-08-18T07:22:59;22.10;79.80
53254;DHT22;39148;53.332;6.922;2022-08-18T07:25:36;22.10;79.90
53254;DHT22;39148;53.332;6.922;2022-08-18T07:28:03;22.10;78.50
53254;DHT22;39148;53.332;6.922;2022-08-18T07:30:37;22.10;79.60
53254;DHT22;39148;53.332;6.922;2022-08-18T07:33:17;22.20;79.70
53254;DHT22;39148;53.332;6.922;2022-08-18T07:35:53;22.10;79.90
53254;DHT22;39148;53.332;6.922;2022-08-18T07:38:39;22.10;80.30
53254;DHT22;39148;53.332;6.922;2022-08-18T07:41:22;22.10;78.70
53254;DHT22;39148;53.332;6.922;2022-08-18T07:44:04;22.00;78.60
53254;DHT22;39148;53.332;6.922;2022-08-18T07:49:27;22.00;78.70
53254;DHT22;39148;53.332;6.922;2022-08-18T08:00:19;22.10;78.90
53254;DHT22;39148;53.332;6.922;2022-08-18T08:08:00;22.30;78.90
53254;DHT22;39148;53.332;6.922;2022-08-18T08:15:55;22.10;79.70
53254;DHT22;39148;53.332;6.922;2022-08-18T08:18:44;22.10;79.90
53254;DHT22;39148;53.332;6.922;2022-08-18T08:21:18;22.10;78.80
53254;DHT22;39148;53.332;6.922;2022-08-18T08:24:29;22.20;79.90
53254;DHT22;39148;53.332;6.922;2022-08-18T08:29:36;22.20;78.50
53254;DHT22;39148;53.332;6.922;2022-08-18T08:32:31;22.10;78.60
53254;DHT22;39148;53.332;6.922;2022-08-18T08:38:05;22.10;78.70
53254;DHT22;39148;53.332;6.922;2022-08-18T08:40:43;22.20;79.80
53254;DHT22;39148;53.332;6.922;2022-08-18T08:43:17;22.00;79.70
53254;DHT22;39148;53.332;6.922;2022-08-18T08:48:32;22.10;78.80
53254;DHT22;39148;53.332;6.922;2022-08-18T08:51:04;22.10;80.20
53254;DHT22;39148;53.332;6.922;2022-08-18T08:53:42;22.10;79.70
53254;DHT22;39148;53.332;6.922;2022-08-18T08:56:13;22.00;78.50
53254;DHT22;39148;53.332;6.922;2022-08-18T08:59:13;22.20;79.80
53254;DHT22;39148;53.332;6.922;2022-08-18T09:04:46;22.10;78.70
53254;DHT22;39148;53.332;6.922;2022-08-18T09:23:20;22.10;79.90
53254;DHT22;39148;53.332;6.922;2022-08-18T09:25:50;22.00;79.70
53254;DHT22;39148;53.332;6.922;2022-08-18T09:28:21;22.00;79.70
53254;DHT22;39148;53.332;6.922;2022-08-18T09:42:09;22.10;78.60
53254;DHT22;39148;53.332;6.922;2022-08-18T09:47:11;22.10;79.80
53254;DHT22;39148;53.332;6.922;2022-08-18T09:52:55;22.00;78.60
53254;DHT22;39148;53.332;6.922;2022-08-18T10:06:41;22.10;78.70
53254;DHT22;39148;53.332;6.922;2022-08-18T10:09:43;22.10;79.60
53254;DHT22;39148;53.332;6.922;2022-08-18T10:15:02;22.00;79.70
53254;DHT22;39148;53.332;6.922;2022-08-18T10:20:30;22.10;79.50
53254;DHT22;39148;53.332;6.922;2022-08-18T10:22:56;22.10;78.80
53254;DHT22;39148;53.332;6.922;2022-08-18T10:25:39;22.20;79.60
53254;DHT22;39148;53.332;6.922;2022-08-18T10:28:10;22.10;78.70
53254;DHT22;39148;53.332;6.922;2022-08-18T10:31:01;22.10;78.50
53254;DHT22;39148;53.332;6.922;2022-08-18T10:36:49;22.10;78.80
53254;DHT22;39148;53.332;6.922;2022-08-18T10:39:26;22.10;80.00
53254;DHT22;39148;53.332;6.922;2022-08-18T10:42:09;22.10;79.90
53254;DHT22;39148;53.332;6.922;2022-08-18T10:44:41;22.10;79.70
53254;DHT22;39148;53.332;6.922;2022-08-18T10:47:18;22.10;79.80
53254;DHT22;39148;53.332;6.922;2022-08-18T10:49:48;22.10;79.80
53254;DHT22;39148;53.332;6.922;2022-08-18T10:57:53;22.20;78.80
53254;DHT22;39148;53.332;6.922;2022-08-18T11:00:24;22.20;79.90
53254;DHT22;39148;53.332;6.922;2022-08-18T11:05:35;22.10;78.50
53254;DHT22;39148;53.332;6.922;2022-08-18T11:08:03;22.10;79.50
53254;DHT22;39148;53.332;6.922;2022-08-18T11:10:38;22.10;79.70
53254;DHT22;39148;53.332;6.922;2022-08-18T11:13:10;22.20;79.90
53254;DHT22;39148;53.332;6.922;2022-08-18T11:15:43;22.10;79.70
53254;DHT22;39148;53.332;6.922;2022-08-18T11:20:46;22.30;79.80
53254;DHT22;39148;53.332;6.922;2022-08-18T11:23:14;22.20;79.50
53254;DHT22;39148;53.332;6.922;2022-08-18T11:25:40;22.10;79.60
53254;DHT22;39148;53.332;6.922;2022-08-18T11:28:21;22.20;79.60
53254;DHT22;39148;53.332;6.922;2022-08-18T11:30:51;22.20;80.00
53254;DHT22;39148;53.332;6.922;2022-08-18T11:33:20;22.20;79.70
53254;DHT22;39148;53.332;6.922;2022-08-18T11:35:53;22.20;79.70
53254;DHT22;39148;53.332;6.922;2022-08-18T11:38:22;22.20;79.70
53254;DHT22;39148;53.332;6.922;2022-08-18T11:40:51;22.30;79.50
53254;DHT22;39148;53.332;6.922;2022-08-18T11:43:31;22.20;79.60
53254;DHT22;39148;53.332;6.922;2022-08-18T11:46:00;22.30;79.80
53254;DHT22;39148;53.332;6.922;2022-08-18T11:48:39;22.30;79.60
53254;DHT22;39148;53.332;6.922;2022-08-18T11:51:15;22.30;79.70
53254;DHT22;39148;53.332;6.922;2022-08-18T11:59:00;22.30;79.60
53254;DHT22;39148;53.332;6.922;2022-08-18T12:06:58;22.30;79.50
53254;DHT22;39148;53.332;6.922;2022-08-18T12:11:59;22.40;79.40
53254;DHT22;39148;53.332;6.922;2022-08-18T12:14:28;22.30;79.30
53254;DHT22;39148;53.332;6.922;2022-08-18T12:16:55;22.30;79.20
53254;DHT22;39148;53.332;6.922;2022-08-18T12:19:21;22.30;79.10
53254;DHT22;39148;53.332;6.922;2022-08-18T12:21:51;22.30;79.20
53254;DHT22;39148;53.332;6.922;2022-08-18T12:24:25;22.40;79.30
53254;DHT22;39148;53.332;6.922;2022-08-18T12:26:52;22.50;79.30
53254;DHT22;39148;53.332;6.922;2022-08-18T12:29:19;22.40;79.10
53254;DHT22;39148;53.332;6.922;2022-08-18T12:31:46;22.40;79.10
53254;DHT22;39148;53.332;6.922;2022-08-18T12:34:12;22.40;79.10
53254;DHT22;39148;53.332;6.922;2022-08-18T12:36:38;22.50;79.00
53254;DHT22;39148;53.332;6.922;2022-08-18T12:39:04;22.50;78.90
53254;DHT22;39148;53.332;6.922;2022-08-18T12:41:30;22.40;78.80
53254;DHT22;39148;53.332;6.922;2022-08-18T12:43:56;22.50;79.00
53254;DHT22;39148;53.332;6.922;2022-08-18T12:46:22;22.50;78.80
53254;DHT22;39148;53.332;6.922;2022-08-18T12:48:48;22.50;78.80
53254;DHT22;39148;53.332;6.922;2022-08-18T12:51:14;22.50;78.70
53254;DHT22;39148;53.332;6.922;2022-08-18T12:53:40;22.50;78.70
53254;DHT22;39148;53.332;6.922;2022-08-18T12:56:11;22.50;78.70
53254;DHT22;39148;53.332;6.922;2022-08-18T12:58:41;22.50;78.90
53254;DHT22;39148;53.332;6.922;2022-08-18T13:01:06;22.50;78.70
53254;DHT22;39148;53.332;6.922;2022-08-18T13:03:32;22.50;78.70
53254;DHT22;39148;53.332;6.922;2022-08-18T13:05:58;22.60;78.80
53254;DHT22;39148;53.332;6.922;2022-08-18T13:08:24;22.60;78.80
53254;DHT22;39148;53.332;6.922;2022-08-18T13:10:50;22.70;79.20
53254;DHT22;39148;53.332;6.922;2022-08-18T13:13:17;22.70;78.70
53254;DHT22;39148;53.332;6.922;2022-08-18T13:15:45;22.60;78.80
53254;DHT22;39148;53.332;6.922;2022-08-18T13:18:11;22.60;78.90
53254;DHT22;39148;53.332;6.922;2022-08-18T13:20:39;22.70;78.90
53254;DHT22;39148;53.332;6.922;2022-08-18T13:23:05;22.70;78.80
53254;DHT22;39148;53.332;6.922;2022-08-18T13:25:30;22.70;79.10
53254;DHT22;39148;53.332;6.922;2022-08-18T13:27:56;22.70;78.60
53254;DHT22;39148;53.332;6.922;2022-08-18T13:30:22;22.70;78.60
53254;DHT22;39148;53.332;6.922;2022-08-18T13:32:49;22.70;78.70
53254;DHT22;39148;53.332;6.922;2022-08-18T13:35:15;22.80;78.70
53254;DHT22;39148;53.332;6.922;2022-08-18T13:37:41;22.80;78.60
53254;DHT22;39148;53.332;6.922;2022-08-18T13:40:09;22.90;78.80
53254;DHT22;39148;53.332;6.922;2022-08-18T13:42:46;22.80;78.50
53254;DHT22;39148;53.332;6.922;2022-08-18T13:45:19;22.90;79.20
53254;DHT22;39148;53.332;6.922;2022-08-18T13:47:46;22.90;79.10
53254;DHT22;39148;53.332;6.922;2022-08-18T13:50:12;23.20;79.10
53254;DHT22;39148;53.332;6.922;2022-08-18T13:52:39;23.00;78.90
53254;DHT22;39148;53.332;6.922;2022-08-18T13:55:08;23.00;79.10
53254;DHT22;39148;53.332;6.922;2022-08-18T13:57:35;23.00;78.70
53254;DHT22;39148;53.332;6.922;2022-08-18T14:00:03;23.00;79.10
53254;DHT22;39148;53.332;6.922;2022-08-18T14:02:29;23.10;79.00
53254;DHT22;39148;53.332;6.922;2022-08-18T14:04:55;23.10;79.00
53254;DHT22;39148;53.332;6.922;2022-08-18T14:07:20;23.30;79.10
53254;DHT22;39148;53.332;6.922;2022-08-18T14:09:46;23.00;78.90
53254;DHT22;39148;53.332;6.922;2022-08-18T14:12:22;23.10;78.90
53254;DHT22;39148;53.332;6.922;2022-08-18T14:14:50;23.00;79.20
53254;DHT22;39148;53.332;6.922;2022-08-18T14:17:16;23.20;79.20
53254;DHT22;39148;53.332;6.922;2022-08-18T14:19:42;23.30;78.90
53254;DHT22;39148;53.332;6.922;2022-08-18T14:22:26;23.20;78.00
53254;DHT22;39148;53.332;6.922;2022-08-18T14:25:11;23.30;78.10
53254;DHT22;39148;53.332;6.922;2022-08-18T14:27:55;23.40;78.00
53254;DHT22;39148;53.332;6.922;2022-08-18T14:30:22;23.40;78.80
53254;DHT22;39148;53.332;6.922;2022-08-18T14:32:48;23.40;78.70
53254;DHT22;39148;53.332;6.922;2022-08-18T14:35:14;23.50;78.70
53254;DHT22;39148;53.332;6.922;2022-08-18T14:37:44;23.40;77.70
53254;DHT22;39148;53.332;6.922;2022-08-18T14:40:10;23.40;78.60
53254;DHT22;39148;53.332;6.922;2022-08-18T14:42:36;23.50;78.50
53254;DHT22;39148;53.332;6.922;2022-08-18T14:45:05;23.60;78.50
53254;DHT22;39148;53.332;6.922;2022-08-18T14:47:31;23.50;78.10
53254;DHT22;39148;53.332;6.922;2022-08-18T14:49:57;23.50;78.80
53254;DHT22;39148;53.332;6.922;2022-08-18T14:52:24;23.70;78.30
53254;DHT22;39148;53.332;6.922;2022-08-18T14:54:50;23.60;78.30
53254;DHT22;39148;53.332;6.922;2022-08-18T14:57:15;23.70;78.20
53254;DHT22;39148;53.332;6.922;2022-08-18T14:59:41;23.70;78.20
53254;DHT22;39148;53.332;6.922;2022-08-18T15:02:09;23.70;78.30
53254;DHT22;39148;53.332;6.922;2022-08-18T15:04:36;23.70;78.20
53254;DHT22;39148;53.332;6.922;2022-08-18T15:07:02;23.70;78.10
53254;DHT22;39148;53.332;6.922;2022-08-18T15:09:28;23.70;77.90
53254;DHT22;39148;53.332;6.922;2022-08-18T15:11:58;23.80;78.00
53254;DHT22;39148;53.332;6.922;2022-08-18T15:14:26;23.80;78.00
53254;DHT22;39148;53.332;6.922;2022-08-18T15:16:52;23.80;78.00
53254;DHT22;39148;53.332;6.922;2022-08-18T15:19:17;23.70;77.80
53254;DHT22;39148;53.332;6.922;2022-08-18T15:21:43;23.80;77.70
53254;DHT22;39148;53.332;6.922;2022-08-18T15:24:28;23.80;76.80
53254;DHT22;39148;53.332;6.922;2022-08-18T15:27:12;23.90;76.80
53254;DHT22;39148;53.332;6.922;2022-08-18T15:29:38;24.00;77.70
53254;DHT22;39148;53.332;6.922;2022-08-18T15:32:04;23.90;77.60
53254;DHT22;39148;53.332;6.922;2022-08-18T15:34:30;23.90;77.60
53254;DHT22;39148;53.332;6.922;2022-08-18T15:36:56;24.00;77.60
53254;DHT22;39148;53.332;6.922;2022-08-18T15:39:22;24.00;77.50
53254;DHT22;39148;53.332;6.922;2022-08-18T15:41:48;24.00;77.70
53254;DHT22;39148;53.332;6.922;2022-08-18T15:44:18;23.90;77.50
53254;DHT22;39148;53.332;6.922;2022-08-18T15:46:43;23.90;77.60
53254;DHT22;39148;53.332;6.922;2022-08-18T15:49:10;24.10;77.50
53254;DHT22;39148;53.332;6.922;2022-08-18T15:51:37;24.10;77.50
53254;DHT22;39148;53.332;6.922;2022-08-18T15:54:04;23.90;77.50
53254;DHT22;39148;53.332;6.922;2022-08-18T15:56:31;23.90;77.40
53254;DHT22;39148;53.332;6.922;2022-08-18T15:58:57;23.90;77.40
53254;DHT22;39148;53.332;6.922;2022-08-18T16:01:24;24.00;77.50
53254;DHT22;39148;53.332;6.922;2022-08-18T16:03:51;24.10;77.50
53254;DHT22;39148;53.332;6.922;2022-08-18T16:06:21;24.10;77.50
53254;DHT22;39148;53.332;6.922;2022-08-18T16:08:49;24.10;77.50
53254;DHT22;39148;53.332;6.922;2022-08-18T16:11:16;24.10;77.40
53254;DHT22;39148;53.332;6.922;2022-08-18T16:13:44;24.00;77.40
53254;DHT22;39148;53.332;6.922;2022-08-18T16:16:12;24.00;77.30
53254;DHT22;39148;53.332;6.922;2022-08-18T16:18:39;24.10;77.50
53254;DHT22;39148;53.332;6.922;2022-08-18T16:21:07;24.10;77.40
53254;DHT22;39148;53.332;6.922;2022-08-18T16:23:40;24.10;77.40
53254;DHT22;39148;53.332;6.922;2022-08-18T16:26:07;24.20;77.50
53254;DHT22;39148;53.332;6.922;2022-08-18T16:28:33;23.90;77.10
53254;DHT22;39148;53.332;6.922;2022-08-18T16:31:00;24.10;77.20
53254;DHT22;39148;53.332;6.922;2022-08-18T16:33:26;24.20;77.40
53254;DHT22;39148;53.332;6.922;2022-08-18T16:35:53;24.20;77.20
53254;DHT22;39148;53.332;6.922;2022-08-18T16:38:19;24.10;77.20
53254;DHT22;39148;53.332;6.922;2022-08-18T16:40:45;24.10;77.20
53254;DHT22;39148;53.332;6.922;2022-08-18T16:43:11;24.10;77.10
53254;DHT22;39148;53.332;6.922;2022-08-18T16:45:40;24.10;77.10
53254;DHT22;39148;53.332;6.922;2022-08-18T16:48:07;24.00;77.10
53254;DHT22;39148;53.332;6.922;2022-08-18T16:50:34;24.10;77.20
53254;DHT22;39148;53.332;6.922;2022-08-18T16:53:00;24.00;77.10
53254;DHT22;39148;53.332;6.922;2022-08-18T16:55:26;24.10;77.10
53254;DHT22;39148;53.332;6.922;2022-08-18T16:57:52;24.00;77.00
53254;DHT22;39148;53.332;6.922;2022-08-18T17:00:36;24.00;76.10
53254;DHT22;39148;53.332;6.922;2022-08-18T17:03:34;24.10;76.10
53254;DHT22;39148;53.332;6.922;2022-08-18T17:06:19;24.10;76.00
53254;DHT22;39148;53.332;6.922;2022-08-18T17:08:45;24.00;76.90
53254;DHT22;39148;53.332;6.922;2022-08-18T17:11:16;24.00;77.00
53254;DHT22;39148;53.332;6.922;2022-08-18T17:13:43;24.00;77.00
53254;DHT22;39148;53.332;6.922;2022-08-18T17:16:10;24.00;76.90
53254;DHT22;39148;53.332;6.922;2022-08-18T17:18:36;24.00;76.80
53254;DHT22;39148;53.332;6.922;2022-08-18T17:21:07;24.00;76.70
53254;DHT22;39148;53.332;6.922;2022-08-18T17:23:34;24.00;75.60
53254;DHT22;39148;53.332;6.922;2022-08-18T17:26:00;24.00;76.70
53254;DHT22;39148;53.332;6.922;2022-08-18T17:28:35;24.00;76.60
53254;DHT22;39148;53.332;6.922;2022-08-18T17:31:04;23.90;76.80
53254;DHT22;39148;53.332;6.922;2022-08-18T17:33:32;23.90;76.70
53254;DHT22;39148;53.332;6.922;2022-08-18T17:36:04;23.90;76.80
53254;DHT22;39148;53.332;6.922;2022-08-18T17:41:10;23.80;76.80
53254;DHT22;39148;53.332;6.922;2022-08-18T17:43:37;23.90;76.80
53254;DHT22;39148;53.332;6.922;2022-08-18T17:46:12;23.90;76.80
53254;DHT22;39148;53.332;6.922;2022-08-18T17:48:48;23.80;76.80
53254;DHT22;39148;53.332;6.922;2022-08-18T17:51:22;23.90;76.90
53254;DHT22;39148;53.332;6.922;2022-08-18T17:54:01;23.80;76.90
53254;DHT22;39148;53.332;6.922;2022-08-18T17:56:32;23.80;76.90
53254;DHT22;39148;53.332;6.922;2022-08-18T17:59:07;23.90;77.00
53254;DHT22;39148;53.332;6.922;2022-08-18T18:01:34;23.80;76.90
53254;DHT22;39148;53.332;6.922;2022-08-18T18:04:01;23.90;76.80